sensor_id;sensor_type;location;lat;lon;timestamp;P1;durP1;ratioP1;P2;durP2;ratioP2
71963;SDS011;59834;52.124;5.422;2023-04-25T00:00:55;17.42;;;1.52;;
71963;SDS011;59834;52.124;5.422;2023-04-25T00:03:21;10.05;;;0.77;;
71963;SDS011;59834;52.124;5.422;2023-04-25T00:05:51;6.68;;;1.55;;
71963;SDS011;59834;52.124;5.422;2023-04-25T00:08:18;19.20;;;1.07;;
71963;SDS011;59834;52.124;5.422;2023-04-25T00:10:44;6.75;;;0.80;;
71963;SDS011;59834;52.124;5.422;2023-04-25T00:13:11;14.60;;;1.55;;
71963;SDS011;59834;52.124;5.422;2023-04-25T00:15:37;13.63;;;1.02;;
71963;SDS011;59834;52.124;5.422;2023-04-25T00:18:04;10.20;;;0.75;;
71963;SDS011;59834;52.124;5.422;2023-04-25T00:20:32;16.23;;;1.37;;
71963;SDS011;59834;52.124;5.422;2023-04-25T00:22:59;6.95;;;0.65;;
71963;SDS011;59834;52.124;5.422;2023-04-25T00:25:25;7.63;;;1.25;;
71963;SDS011;59834;52.124;5.422;2023-04-25T00:27:51;6.53;;;1.05;;
71963;SDS011;59834;52.124;5.422;2023-04-25T00:30:18;13.40;;;1.50;;
71963;SDS011;59834;52.124;5.422;2023-04-25T00:32:44;8.67;;;0.93;;
71963;SDS011;59834;52.124;5.422;2023-04-25T00:35:12;11.98;;;1.17;;
71963;SDS011;59834;52.124;5.422;2023-04-25T00:37:38;8.60;;;1.25;;
71963;SDS011;59834;52.124;5.422;2023-04-25T00:40:06;6.05;;;0.50;;
71963;SDS011;59834;52.124;5.422;2023-04-25T00:42:32;12.00;;;0.88;;
71963;SDS011;59834;52.124;5.422;2023-04-25T00:45:01;6.13;;;1.00;;
71963;SDS011;59834;52.124;5.422;2023-04-25T00:47:27;12.98;;;1.45;;
71963;SDS011;59834;52.124;5.422;2023-04-25T00:49:54;17.30;;;1.20;;
71963;SDS011;59834;52.124;5.422;2023-04-25T00:52:21;4.00;;;0.63;;
71963;SDS011;59834;52.124;5.422;2023-04-25T00:54:47;7.28;;;1.30;;
71963;SDS011;59834;52.124;5.422;2023-04-25T00:57:14;10.00;;;1.13;;
71963;SDS011;59834;52.124;5.422;2023-04-25T00:59:42;13.98;;;1.33;;
71963;SDS011;59834;52.124;5.422;2023-04-25T01:02:11;7.40;;;0.93;;
71963;SDS011;59834;52.124;5.422;2023-04-25T01:04:38;7.15;;;0.93;;
71963;SDS011;59834;52.124;5.422;2023-04-25T01:07:05;8.02;;;0.63;;
71963;SDS011;59834;52.124;5.422;2023-04-25T01:09:32;10.23;;;1.87;;
71963;SDS011;59834;52.124;5.422;2023-04-25T01:11:59;11.43;;;1.50;;
71963;SDS011;59834;52.124;5.422;2023-04-25T01:14:27;11.15;;;1.23;;
71963;SDS011;59834;52.124;5.422;2023-04-25T01:16:53;8.15;;;1.05;;
71963;SDS011;59834;52.124;5.422;2023-04-25T01:19:20;9.18;;;1.10;;
71963;SDS011;59834;52.124;5.422;2023-04-25T01:21:47;8.20;;;1.30;;
71963;SDS011;59834;52.124;5.422;2023-04-25T01:24:14;9.23;;;0.77;;
71963;SDS011;59834;52.124;5.422;2023-04-25T01:26:41;8.02;;;0.75;;
71963;SDS011;59834;52.124;5.422;2023-04-25T01:29:11;11.77;;;1.63;;
71963;SDS011;59834;52.124;5.422;2023-04-25T01:31:37;11.45;;;1.00;;
71963;SDS011;59834;52.124;5.422;2023-04-25T01:34:04;8.27;;;0.80;;
71963;SDS011;59834;52.124;5.422;2023-04-25T01:36:31;14.80;;;1.98;;
71963;SDS011;59834;52.124;5.422;2023-04-25T01:38:57;9.65;;;1.20;;
71963;SDS011;59834;52.124;5.422;2023-04-25T01:41:24;9.00;;;0.65;;
71963;SDS011;59834;52.124;5.422;2023-04-25T01:43:50;8.93;;;1.27;;
71963;SDS011;59834;52.124;5.422;2023-04-25T01:46:17;6.60;;;1.10;;
71963;SDS011;59834;52.124;5.422;2023-04-25T01:48:44;11.27;;;1.77;;
71963;SDS011;59834;52.124;5.422;2023-04-25T01:51:12;10.93;;;0.98;;
71963;SDS011;59834;52.124;5.422;2023-04-25T01:53:38;10.02;;;1.52;;
71963;SDS011;59834;52.124;5.422;2023-04-25T01:56:05;14.57;;;1.35;;
71963;SDS011;59834;52.124;5.422;2023-04-25T01:58:32;11.43;;;0.90;;
71963;SDS011;59834;52.124;5.422;2023-04-25T02:00:59;3.47;;;0.30;;
71963;SDS011;59834;52.124;5.422;2023-04-25T02:03:25;11.05;;;0.80;;
71963;SDS011;59834;52.124;5.422;2023-04-25T02:05:52;7.75;;;1.00;;
71963;SDS011;59834;52.124;5.422;2023-04-25T02:08:18;4.60;;;1.02;;
71963;SDS011;59834;52.124;5.422;2023-04-25T02:10:45;7.00;;;1.10;;
71963;SDS011;59834;52.124;5.422;2023-04-25T02:13:11;4.68;;;0.80;;
71963;SDS011;59834;52.124;5.422;2023-04-25T02:15:38;11.02;;;0.80;;
71963;SDS011;59834;52.124;5.422;2023-04-25T02:18:04;11.48;;;0.75;;
71963;SDS011;59834;52.124;5.422;2023-04-25T02:20:32;6.47;;;0.60;;
71963;SDS011;59834;52.124;5.422;2023-04-25T02:22:59;8.37;;;0.90;;
71963;SDS011;59834;52.124;5.422;2023-04-25T02:25:25;7.18;;;0.43;;
71963;SDS011;59834;52.124;5.422;2023-04-25T02:27:52;14.52;;;0.80;;
71963;SDS011;59834;52.124;5.422;2023-04-25T02:30:18;6.43;;;0.50;;
71963;SDS011;59834;52.124;5.422;2023-04-25T02:32:45;8.48;;;0.80;;
71963;SDS011;59834;52.124;5.422;2023-04-25T02:35:12;7.40;;;0.50;;
71963;SDS011;59834;52.124;5.422;2023-04-25T02:37:39;9.30;;;1.10;;
71963;SDS011;59834;52.124;5.422;2023-04-25T02:40:06;8.30;;;0.90;;
71963;SDS011;59834;52.124;5.422;2023-04-25T02:42:33;10.65;;;1.05;;
71963;SDS011;59834;52.124;5.422;2023-04-25T02:44:59;7.00;;;0.60;;
71963;SDS011;59834;52.124;5.422;2023-04-25T02:47:26;6.63;;;0.97;;
71963;SDS011;59834;52.124;5.422;2023-04-25T02:49:53;7.75;;;0.50;;
71963;SDS011;59834;52.124;5.422;2023-04-25T02:52:19;10.35;;;0.77;;
71963;SDS011;59834;52.124;5.422;2023-04-25T02:54:47;10.25;;;1.55;;
71963;SDS011;59834;52.124;5.422;2023-04-25T02:57:13;13.10;;;0.88;;
71963;SDS011;59834;52.124;5.422;2023-04-25T02:59:40;4.13;;;0.63;;
71963;SDS011;59834;52.124;5.422;2023-04-25T03:02:06;8.85;;;0.80;;
71963;SDS011;59834;52.124;5.422;2023-04-25T03:04:33;8.40;;;0.60;;
71963;SDS011;59834;52.124;5.422;2023-04-25T03:06:59;11.20;;;0.85;;
71963;SDS011;59834;52.124;5.422;2023-04-25T03:09:27;8.98;;;0.85;;
71963;SDS011;59834;52.124;5.422;2023-04-25T03:11:53;4.30;;;0.50;;
71963;SDS011;59834;52.124;5.422;2023-04-25T03:14:19;9.38;;;0.80;;
71963;SDS011;59834;52.124;5.422;2023-04-25T03:16:46;12.23;;;0.90;;
71963;SDS011;59834;52.124;5.422;2023-04-25T03:19:12;13.75;;;1.20;;
71963;SDS011;59834;52.124;5.422;2023-04-25T03:21:42;6.88;;;0.80;;
71963;SDS011;59834;52.124;5.422;2023-04-25T03:24:09;7.87;;;0.90;;
71963;SDS011;59834;52.124;5.422;2023-04-25T03:26:37;17.55;;;1.40;;
71963;SDS011;59834;52.124;5.422;2023-04-25T03:29:03;10.48;;;1.08;;
71963;SDS011;59834;52.124;5.422;2023-04-25T03:31:30;7.55;;;0.80;;
71963;SDS011;59834;52.124;5.422;2023-04-25T03:33:57;12.75;;;0.80;;
71963;SDS011;59834;52.124;5.422;2023-04-25T03:36:23;10.33;;;0.90;;
71963;SDS011;59834;52.124;5.422;2023-04-25T03:38:50;8.63;;;1.00;;
71963;SDS011;59834;52.124;5.422;2023-04-25T03:41:17;7.78;;;0.90;;
71963;SDS011;59834;52.124;5.422;2023-04-25T03:43:43;3.58;;;0.60;;
71963;SDS011;59834;52.124;5.422;2023-04-25T03:46:09;10.70;;;0.60;;
71963;SDS011;59834;52.124;5.422;2023-04-25T03:48:36;9.27;;;0.63;;
71963;SDS011;59834;52.124;5.422;2023-04-25T03:51:03;7.57;;;1.02;;
71963;SDS011;59834;52.124;5.422;2023-04-25T03:53:29;6.75;;;0.82;;
71963;SDS011;59834;52.124;5.422;2023-04-25T03:55:55;5.53;;;0.60;;
71963;SDS011;59834;52.124;5.422;2023-04-25T03:58:22;5.47;;;0.70;;
71963;SDS011;59834;52.124;5.422;2023-04-25T04:00:50;8.17;;;0.60;;
71963;SDS011;59834;52.124;5.422;2023-04-25T04:03:16;3.72;;;0.43;;
71963;SDS011;59834;52.124;5.422;2023-04-25T04:05:43;9.60;;;0.73;;
71963;SDS011;59834;52.124;5.422;2023-04-25T04:08:11;12.68;;;1.40;;
71963;SDS011;59834;52.124;5.422;2023-04-25T04:10:38;5.80;;;0.70;;
71963;SDS011;59834;52.124;5.422;2023-04-25T04:13:04;8.20;;;0.50;;
71963;SDS011;59834;52.124;5.422;2023-04-25T04:15:30;10.02;;;0.73;;
71963;SDS011;59834;52.124;5.422;2023-04-25T04:17:59;7.20;;;0.80;;
71963;SDS011;59834;52.124;5.422;2023-04-25T04:20:29;5.78;;;0.47;;
71963;SDS011;59834;52.124;5.422;2023-04-25T04:22:56;6.22;;;0.50;;
71963;SDS011;59834;52.124;5.422;2023-04-25T04:25:23;5.10;;;0.60;;
71963;SDS011;59834;52.124;5.422;2023-04-25T04:27:50;8.70;;;0.70;;
71963;SDS011;59834;52.124;5.422;2023-04-25T04:30:23;6.57;;;0.45;;
71963;SDS011;59834;52.124;5.422;2023-04-25T04:32:51;4.55;;;0.60;;
71963;SDS011;59834;52.124;5.422;2023-04-25T04:35:18;6.78;;;0.47;;
71963;SDS011;59834;52.124;5.422;2023-04-25T04:37:44;7.87;;;0.80;;
71963;SDS011;59834;52.124;5.422;2023-04-25T04:40:12;6.88;;;0.40;;
71963;SDS011;59834;52.124;5.422;2023-04-25T04:42:41;4.75;;;0.40;;
71963;SDS011;59834;52.124;5.422;2023-04-25T04:45:09;4.07;;;0.30;;
71963;SDS011;59834;52.124;5.422;2023-04-25T04:47:36;6.45;;;0.60;;
71963;SDS011;59834;52.124;5.422;2023-04-25T04:50:03;4.80;;;0.60;;
71963;SDS011;59834;52.124;5.422;2023-04-25T04:52:30;12.05;;;0.90;;
71963;SDS011;59834;52.124;5.422;2023-04-25T04:54:56;4.13;;;0.32;;
71963;SDS011;59834;52.124;5.422;2023-04-25T04:57:23;4.90;;;0.38;;
71963;SDS011;59834;52.124;5.422;2023-04-25T04:59:49;2.30;;;0.80;;
71963;SDS011;59834;52.124;5.422;2023-04-25T05:02:16;8.37;;;0.67;;
71963;SDS011;59834;52.124;5.422;2023-04-25T05:04:43;11.68;;;0.38;;
71963;SDS011;59834;52.124;5.422;2023-04-25T05:07:09;2.42;;;0.30;;
71963;SDS011;59834;52.124;5.422;2023-04-25T05:09:36;5.72;;;0.35;;
71963;SDS011;59834;52.124;5.422;2023-04-25T05:12:02;6.13;;;0.30;;
71963;SDS011;59834;52.124;5.422;2023-04-25T05:14:29;6.07;;;0.23;;
71963;SDS011;59834;52.124;5.422;2023-04-25T05:16:55;4.53;;;0.40;;
71963;SDS011;59834;52.124;5.422;2023-04-25T05:19:22;6.25;;;0.70;;
71963;SDS011;59834;52.124;5.422;2023-04-25T05:21:49;4.90;;;0.30;;
71963;SDS011;59834;52.124;5.422;2023-04-25T05:24:16;4.00;;;0.45;;
71963;SDS011;59834;52.124;5.422;2023-04-25T05:26:42;5.23;;;0.40;;
71963;SDS011;59834;52.124;5.422;2023-04-25T05:29:09;2.25;;;0.30;;
71963;SDS011;59834;52.124;5.422;2023-04-25T05:31:35;3.28;;;0.40;;
71963;SDS011;59834;52.124;5.422;2023-04-25T05:34:02;7.07;;;0.63;;
71963;SDS011;59834;52.124;5.422;2023-04-25T05:36:29;6.00;;;0.40;;
71963;SDS011;59834;52.124;5.422;2023-04-25T05:38:56;5.33;;;0.33;;
71963;SDS011;59834;52.124;5.422;2023-04-25T05:41:23;8.48;;;0.40;;
71963;SDS011;59834;52.124;5.422;2023-04-25T05:43:49;3.42;;;0.32;;
71963;SDS011;59834;52.124;5.422;2023-04-25T05:46:17;8.27;;;0.70;;
71963;SDS011;59834;52.124;5.422;2023-04-25T05:48:43;5.32;;;0.40;;
71963;SDS011;59834;52.124;5.422;2023-04-25T05:51:10;6.10;;;0.37;;
71963;SDS011;59834;52.124;5.422;2023-04-25T05:53:36;8.73;;;0.98;;
71963;SDS011;59834;52.124;5.422;2023-04-25T05:56:03;8.90;;;0.60;;
71963;SDS011;59834;52.124;5.422;2023-04-25T05:58:29;8.85;;;0.50;;
71963;SDS011;59834;52.124;5.422;2023-04-25T06:00:56;9.45;;;0.40;;
71963;SDS011;59834;52.124;5.422;2023-04-25T06:03:22;4.93;;;0.43;;
71963;SDS011;59834;52.124;5.422;2023-04-25T06:05:49;2.40;;;0.20;;
71963;SDS011;59834;52.124;5.422;2023-04-25T06:08:16;5.22;;;0.30;;
71963;SDS011;59834;52.124;5.422;2023-04-25T06:10:43;5.72;;;0.32;;
71963;SDS011;59834;52.124;5.422;2023-04-25T06:13:09;3.97;;;0.30;;
71963;SDS011;59834;52.124;5.422;2023-04-25T06:15:35;4.37;;;0.40;;
71963;SDS011;59834;52.124;5.422;2023-04-25T06:18:02;4.85;;;0.10;;
71963;SDS011;59834;52.124;5.422;2023-04-25T06:20:29;2.60;;;0.63;;
71963;SDS011;59834;52.124;5.422;2023-04-25T06:22:55;5.22;;;0.40;;
71963;SDS011;59834;52.124;5.422;2023-04-25T06:25:22;6.18;;;0.32;;
71963;SDS011;59834;52.124;5.422;2023-04-25T06:27:48;3.35;;;0.20;;
71963;SDS011;59834;52.124;5.422;2023-04-25T06:30:15;3.63;;;0.43;;
71963;SDS011;59834;52.124;5.422;2023-04-25T06:32:44;6.65;;;0.60;;
71963;SDS011;59834;52.124;5.422;2023-04-25T06:35:10;9.68;;;0.35;;
71963;SDS011;59834;52.124;5.422;2023-04-25T06:37:38;2.67;;;0.40;;
71963;SDS011;59834;52.124;5.422;2023-04-25T06:40:05;9.63;;;0.83;;
71963;SDS011;59834;52.124;5.422;2023-04-25T06:42:32;1.98;;;0.30;;
71963;SDS011;59834;52.124;5.422;2023-04-25T06:44:58;11.35;;;1.90;;
71963;SDS011;59834;52.124;5.422;2023-04-25T06:47:24;3.85;;;0.28;;
71963;SDS011;59834;52.124;5.422;2023-04-25T06:49:51;6.43;;;0.30;;
71963;SDS011;59834;52.124;5.422;2023-04-25T06:52:18;6.03;;;0.30;;
71963;SDS011;59834;52.124;5.422;2023-04-25T06:54:45;10.07;;;0.90;;
71963;SDS011;59834;52.124;5.422;2023-04-25T06:57:11;5.30;;;0.20;;
71963;SDS011;59834;52.124;5.422;2023-04-25T06:59:38;5.63;;;0.60;;
71963;SDS011;59834;52.124;5.422;2023-04-25T07:02:05;5.22;;;0.30;;
71963;SDS011;59834;52.124;5.422;2023-04-25T07:04:32;7.15;;;0.45;;
71963;SDS011;59834;52.124;5.422;2023-04-25T07:06:59;7.60;;;0.80;;
71963;SDS011;59834;52.124;5.422;2023-04-25T07:09:27;2.38;;;0.73;;
71963;SDS011;59834;52.124;5.422;2023-04-25T07:11:53;5.18;;;1.00;;
71963;SDS011;59834;52.124;5.422;2023-04-25T07:14:20;4.97;;;0.30;;
71963;SDS011;59834;52.124;5.422;2023-04-25T07:16:46;4.75;;;0.43;;
71963;SDS011;59834;52.124;5.422;2023-04-25T07:19:13;3.60;;;0.20;;
71963;SDS011;59834;52.124;5.422;2023-04-25T07:21:39;7.40;;;0.45;;
71963;SDS011;59834;52.124;5.422;2023-04-25T07:24:08;6.53;;;0.60;;
71963;SDS011;59834;52.124;5.422;2023-04-25T07:26:35;6.90;;;0.45;;
71963;SDS011;59834;52.124;5.422;2023-04-25T07:29:01;6.20;;;0.40;;
71963;SDS011;59834;52.124;5.422;2023-04-25T07:31:28;6.82;;;0.28;;
71963;SDS011;59834;52.124;5.422;2023-04-25T07:33:54;5.35;;;0.47;;
71963;SDS011;59834;52.124;5.422;2023-04-25T07:36:21;5.78;;;0.30;;
71963;SDS011;59834;52.124;5.422;2023-04-25T07:38:47;4.60;;;0.60;;
71963;SDS011;59834;52.124;5.422;2023-04-25T07:41:14;4.18;;;0.30;;
71963;SDS011;59834;52.124;5.422;2023-04-25T07:43:41;2.25;;;0.30;;
71963;SDS011;59834;52.124;5.422;2023-04-25T07:46:07;4.00;;;0.30;;
71963;SDS011;59834;52.124;5.422;2023-04-25T07:48:34;2.72;;;0.47;;
71963;SDS011;59834;52.124;5.422;2023-04-25T07:51:01;3.75;;;0.20;;
71963;SDS011;59834;52.124;5.422;2023-04-25T07:53:27;7.75;;;0.20;;
71963;SDS011;59834;52.124;5.422;2023-04-25T07:55:53;3.45;;;0.15;;
71963;SDS011;59834;52.124;5.422;2023-04-25T07:58:20;8.98;;;0.20;;
71963;SDS011;59834;52.124;5.422;2023-04-25T08:00:48;4.00;;;0.10;;
71963;SDS011;59834;52.124;5.422;2023-04-25T08:03:15;3.00;;;0.20;;
71963;SDS011;59834;52.124;5.422;2023-04-25T08:05:42;5.28;;;0.20;;
71963;SDS011;59834;52.124;5.422;2023-04-25T08:08:09;3.08;;;0.30;;
71963;SDS011;59834;52.124;5.422;2023-04-25T08:10:35;3.13;;;0.20;;
71963;SDS011;59834;52.124;5.422;2023-04-25T08:13:02;6.05;;;0.50;;
71963;SDS011;59834;52.124;5.422;2023-04-25T08:15:28;9.30;;;0.25;;
71963;SDS011;59834;52.124;5.422;2023-04-25T08:17:55;5.88;;;0.20;;
71963;SDS011;59834;52.124;5.422;2023-04-25T08:20:21;3.55;;;0.30;;
71963;SDS011;59834;52.124;5.422;2023-04-25T08:22:49;5.03;;;0.70;;
71963;SDS011;59834;52.124;5.422;2023-04-25T08:25:16;5.57;;;0.10;;
71963;SDS011;59834;52.124;5.422;2023-04-25T08:27:44;4.15;;;0.20;;
71963;SDS011;59834;52.124;5.422;2023-04-25T08:30:11;6.63;;;0.20;;
71963;SDS011;59834;52.124;5.422;2023-04-25T08:32:37;7.93;;;0.30;;
71963;SDS011;59834;52.124;5.422;2023-04-25T08:35:05;3.83;;;0.10;;
71963;SDS011;59834;52.124;5.422;2023-04-25T08:37:32;8.32;;;0.30;;
71963;SDS011;59834;52.124;5.422;2023-04-25T08:39:58;4.05;;;0.10;;
71963;SDS011;59834;52.124;5.422;2023-04-25T08:42:26;1.02;;;0.10;;
71963;SDS011;59834;52.124;5.422;2023-04-25T08:44:53;0.68;;;0.10;;
71963;SDS011;59834;52.124;5.422;2023-04-25T08:47:21;4.68;;;0.10;;
71963;SDS011;59834;52.124;5.422;2023-04-25T08:49:49;3.90;;;0.10;;
71963;SDS011;59834;52.124;5.422;2023-04-25T08:52:16;5.25;;;0.38;;
71963;SDS011;59834;52.124;5.422;2023-04-25T08:54:53;4.95;;;0.40;;
71963;SDS011;59834;52.124;5.422;2023-04-25T08:57:21;2.15;;;0.20;;
71963;SDS011;59834;52.124;5.422;2023-04-25T08:59:48;2.33;;;0.10;;
71963;SDS011;59834;52.124;5.422;2023-04-25T09:02:15;2.78;;;0.10;;
71963;SDS011;59834;52.124;5.422;2023-04-25T09:04:44;4.80;;;0.10;;
71963;SDS011;59834;52.124;5.422;2023-04-25T09:07:11;4.37;;;0.23;;
71963;SDS011;59834;52.124;5.422;2023-04-25T09:09:38;6.90;;;0.60;;
71963;SDS011;59834;52.124;5.422;2023-04-25T09:12:05;4.15;;;0.28;;
71963;SDS011;59834;52.124;5.422;2023-04-25T09:14:32;8.13;;;0.20;;
71963;SDS011;59834;52.124;5.422;2023-04-25T09:17:00;5.90;;;0.10;;
71963;SDS011;59834;52.124;5.422;2023-04-25T09:19:30;9.98;;;0.40;;
71963;SDS011;59834;52.124;5.422;2023-04-25T09:22:07;4.13;;;0.43;;
71963;SDS011;59834;52.124;5.422;2023-04-25T09:24:39;3.15;;;0.10;;
71963;SDS011;59834;52.124;5.422;2023-04-25T09:27:11;2.47;;;0.10;;
71963;SDS011;59834;52.124;5.422;2023-04-25T09:29:40;3.90;;;0.10;;
71963;SDS011;59834;52.124;5.422;2023-04-25T09:32:15;3.28;;;0.10;;
71963;SDS011;59834;52.124;5.422;2023-04-25T09:34:48;6.28;;;0.70;;
71963;SDS011;59834;52.124;5.422;2023-04-25T09:37:20;2.78;;;0.10;;
71963;SDS011;59834;52.124;5.422;2023-04-25T09:39:49;3.67;;;0.20;;
71963;SDS011;59834;52.124;5.422;2023-04-25T09:42:17;11.15;;;0.75;;
71963;SDS011;59834;52.124;5.422;2023-04-25T09:44:45;1.70;;;0.20;;
71963;SDS011;59834;52.124;5.422;2023-04-25T09:47:12;3.42;;;0.22;;
71963;SDS011;59834;52.124;5.422;2023-04-25T09:49:42;3.17;;;0.10;;
71963;SDS011;59834;52.124;5.422;2023-04-25T09:52:09;3.13;;;0.10;;
71963;SDS011;59834;52.124;5.422;2023-04-25T09:54:39;2.63;;;0.20;;
71963;SDS011;59834;52.124;5.422;2023-04-25T09:57:15;5.55;;;0.60;;
71963;SDS011;59834;52.124;5.422;2023-04-25T09:59:47;8.25;;;0.30;;
71963;SDS011;59834;52.124;5.422;2023-04-25T10:02:16;3.20;;;0.20;;
71963;SDS011;59834;52.124;5.422;2023-04-25T10:04:49;5.20;;;0.20;;
71963;SDS011;59834;52.124;5.422;2023-04-25T10:07:22;3.15;;;0.20;;
71963;SDS011;59834;52.124;5.422;2023-04-25T10:09:58;3.50;;;0.40;;
71963;SDS011;59834;52.124;5.422;2023-04-25T10:12:27;1.67;;;0.30;;
71963;SDS011;59834;52.124;5.422;2023-04-25T10:14:54;3.80;;;0.20;;
71963;SDS011;59834;52.124;5.422;2023-04-25T10:17:21;2.92;;;0.10;;
71963;SDS011;59834;52.124;5.422;2023-04-25T10:19:48;4.65;;;0.55;;
71963;SDS011;59834;52.124;5.422;2023-04-25T10:22:32;2.28;;;0.15;;
71963;SDS011;59834;52.124;5.422;2023-04-25T10:25:02;2.97;;;0.10;;
71963;SDS011;59834;52.124;5.422;2023-04-25T10:27:30;1.63;;;0.20;;
71963;SDS011;59834;52.124;5.422;2023-04-25T10:30:01;3.80;;;0.10;;
71963;SDS011;59834;52.124;5.422;2023-04-25T10:32:30;2.92;;;0.28;;
71963;SDS011;59834;52.124;5.422;2023-04-25T10:35:09;2.00;;;0.10;;
71963;SDS011;59834;52.124;5.422;2023-04-25T10:37:55;0.93;;;0.20;;
71963;SDS011;59834;52.124;5.422;2023-04-25T10:40:35;3.08;;;0.15;;
71963;SDS011;59834;52.124;5.422;2023-04-25T10:43:48;6.75;;;0.20;;
71963;SDS011;59834;52.124;5.422;2023-04-25T10:46:01;4.82;;;0.15;;
71963;SDS011;59834;52.124;5.422;2023-04-25T10:48:28;4.93;;;0.45;;
71963;SDS011;59834;52.124;5.422;2023-04-25T10:51:11;1.40;;;0.10;;
71963;SDS011;59834;52.124;5.422;2023-04-25T10:53:43;3.25;;;0.17;;
71963;SDS011;59834;52.124;5.422;2023-04-25T10:56:17;4.30;;;0.32;;
71963;SDS011;59834;52.124;5.422;2023-04-25T10:58:45;5.18;;;0.17;;
71963;SDS011;59834;52.124;5.422;2023-04-25T11:01:15;2.17;;;0.20;;
71963;SDS011;59834;52.124;5.422;2023-04-25T11:03:46;7.30;;;0.38;;
71963;SDS011;59834;52.124;5.422;2023-04-25T11:08:51;2.95;;;0.30;;
71963;SDS011;59834;52.124;5.422;2023-04-25T11:11:18;4.53;;;0.20;;
71963;SDS011;59834;52.124;5.422;2023-04-25T11:13:48;4.55;;;0.55;;
71963;SDS011;59834;52.124;5.422;2023-04-25T11:16:16;6.68;;;0.65;;
71963;SDS011;59834;52.124;5.422;2023-04-25T11:18:48;7.45;;;0.40;;
71963;SDS011;59834;52.124;5.422;2023-04-25T11:21:15;3.03;;;0.30;;
71963;SDS011;59834;52.124;5.422;2023-04-25T11:23:44;4.65;;;0.47;;
71963;SDS011;59834;52.124;5.422;2023-04-25T11:26:12;5.60;;;0.20;;
71963;SDS011;59834;52.124;5.422;2023-04-25T11:28:40;8.43;;;0.10;;
71963;SDS011;59834;52.124;5.422;2023-04-25T11:31:07;1.95;;;0.50;;
71963;SDS011;59834;52.124;5.422;2023-04-25T11:33:35;2.47;;;0.20;;
71963;SDS011;59834;52.124;5.422;2023-04-25T11:36:02;3.28;;;0.20;;
71963;SDS011;59834;52.124;5.422;2023-04-25T11:38:29;5.65;;;0.30;;
71963;SDS011;59834;52.124;5.422;2023-04-25T11:40:56;3.70;;;0.60;;
71963;SDS011;59834;52.124;5.422;2023-04-25T11:43:25;9.40;;;0.20;;
71963;SDS011;59834;52.124;5.422;2023-04-25T11:45:52;6.50;;;0.30;;
71963;SDS011;59834;52.124;5.422;2023-04-25T11:48:18;1.33;;;0.10;;
71963;SDS011;59834;52.124;5.422;2023-04-25T11:50:51;6.33;;;0.20;;
71963;SDS011;59834;52.124;5.422;2023-04-25T11:53:18;6.72;;;0.20;;
71963;SDS011;59834;52.124;5.422;2023-04-25T11:55:44;3.88;;;0.22;;
71963;SDS011;59834;52.124;5.422;2023-04-25T11:58:11;2.53;;;0.20;;
71963;SDS011;59834;52.124;5.422;2023-04-25T12:00:41;3.75;;;0.20;;
71963;SDS011;59834;52.124;5.422;2023-04-25T12:03:15;4.20;;;0.30;;
71963;SDS011;59834;52.124;5.422;2023-04-25T12:05:45;7.60;;;0.73;;
71963;SDS011;59834;52.124;5.422;2023-04-25T12:08:13;2.72;;;0.20;;
71963;SDS011;59834;52.124;5.422;2023-04-25T12:10:41;7.93;;;0.73;;
71963;SDS011;59834;52.124;5.422;2023-04-25T12:13:19;3.92;;;0.38;;
71963;SDS011;59834;52.124;5.422;2023-04-25T12:15:47;5.35;;;0.52;;
71963;SDS011;59834;52.124;5.422;2023-04-25T12:18:14;2.90;;;0.22;;
71963;SDS011;59834;52.124;5.422;2023-04-25T12:20:41;4.57;;;0.20;;
71963;SDS011;59834;52.124;5.422;2023-04-25T12:23:09;2.08;;;0.05;;
71963;SDS011;59834;52.124;5.422;2023-04-25T12:25:41;4.32;;;0.20;;
71963;SDS011;59834;52.124;5.422;2023-04-25T12:28:19;4.40;;;0.25;;
71963;SDS011;59834;52.124;5.422;2023-04-25T12:33:24;4.43;;;0.20;;
71963;SDS011;59834;52.124;5.422;2023-04-25T12:35:52;2.47;;;0.20;;
71963;SDS011;59834;52.124;5.422;2023-04-25T12:38:22;1.58;;;0.10;;
71963;SDS011;59834;52.124;5.422;2023-04-25T12:40:57;2.78;;;0.20;;
71963;SDS011;59834;52.124;5.422;2023-04-25T12:43:24;2.10;;;0.10;;
71963;SDS011;59834;52.124;5.422;2023-04-25T12:45:52;4.78;;;0.10;;
71963;SDS011;59834;52.124;5.422;2023-04-25T12:48:19;2.50;;;0.10;;
71963;SDS011;59834;52.124;5.422;2023-04-25T12:50:47;1.52;;;0.28;;
71963;SDS011;59834;52.124;5.422;2023-04-25T12:53:16;1.48;;;0.25;;
71963;SDS011;59834;52.124;5.422;2023-04-25T12:55:43;3.23;;;0.23;;
71963;SDS011;59834;52.124;5.422;2023-04-25T12:58:17;1.88;;;0.20;;
71963;SDS011;59834;52.124;5.422;2023-04-25T13:00:45;0.90;;;0.10;;
71963;SDS011;59834;52.124;5.422;2023-04-25T13:03:12;2.05;;;0.40;;
71963;SDS011;59834;52.124;5.422;2023-04-25T13:05:39;0.80;;;0.03;;
71963;SDS011;59834;52.124;5.422;2023-04-25T13:08:07;3.87;;;0.10;;
71963;SDS011;59834;52.124;5.422;2023-04-25T13:10:34;2.13;;;0.20;;
71963;SDS011;59834;52.124;5.422;2023-04-25T13:13:02;4.80;;;0.30;;
71963;SDS011;59834;52.124;5.422;2023-04-25T13:15:28;4.80;;;0.20;;
71963;SDS011;59834;52.124;5.422;2023-04-25T13:17:55;2.65;;;0.20;;
71963;SDS011;59834;52.124;5.422;2023-04-25T13:20:22;2.53;;;0.10;;
71963;SDS011;59834;52.124;5.422;2023-04-25T13:22:49;1.30;;;0.10;;
71963;SDS011;59834;52.124;5.422;2023-04-25T13:25:15;3.10;;;0.20;;
71963;SDS011;59834;52.124;5.422;2023-04-25T13:27:45;1.70;;;0.10;;
71963;SDS011;59834;52.124;5.422;2023-04-25T13:30:12;1.92;;;0.20;;
71963;SDS011;59834;52.124;5.422;2023-04-25T13:32:39;4.73;;;0.10;;
71963;SDS011;59834;52.124;5.422;2023-04-25T13:35:10;2.35;;;0.20;;
71963;SDS011;59834;52.124;5.422;2023-04-25T13:37:38;3.70;;;0.10;;
71963;SDS011;59834;52.124;5.422;2023-04-25T13:40:07;1.23;;;0.10;;
71963;SDS011;59834;52.124;5.422;2023-04-25T13:46:46;1.70;;;0.10;;
71963;SDS011;59834;52.124;5.422;2023-04-25T13:50:16;3.25;;;0.50;;
71963;SDS011;59834;52.124;5.422;2023-04-25T13:52:43;1.58;;;0.15;;
71963;SDS011;59834;52.124;5.422;2023-04-25T13:55:14;1.98;;;0.30;;
71963;SDS011;59834;52.124;5.422;2023-04-25T13:57:41;1.10;;;0.10;;
71963;SDS011;59834;52.124;5.422;2023-04-25T14:00:09;3.53;;;0.10;;
71963;SDS011;59834;52.124;5.422;2023-04-25T14:02:44;2.88;;;0.20;;
71963;SDS011;59834;52.124;5.422;2023-04-25T14:05:17;1.63;;;0.10;;
71963;SDS011;59834;52.124;5.422;2023-04-25T14:07:45;1.15;;;0.10;;
71963;SDS011;59834;52.124;5.422;2023-04-25T14:10:14;4.85;;;0.20;;
71963;SDS011;59834;52.124;5.422;2023-04-25T14:12:41;3.97;;;0.17;;
71963;SDS011;59834;52.124;5.422;2023-04-25T14:15:12;2.05;;;0.22;;
71963;SDS011;59834;52.124;5.422;2023-04-25T14:18:02;3.47;;;0.30;;
71963;SDS011;59834;52.124;5.422;2023-04-25T14:20:34;3.58;;;0.10;;
71963;SDS011;59834;52.124;5.422;2023-04-25T14:23:12;1.10;;;0.20;;
71963;SDS011;59834;52.124;5.422;2023-04-25T14:26:07;1.45;;;0.10;;
71963;SDS011;59834;52.124;5.422;2023-04-25T14:28:33;6.47;;;0.40;;
71963;SDS011;59834;52.124;5.422;2023-04-25T14:31:00;1.20;;;0.10;;
71963;SDS011;59834;52.124;5.422;2023-04-25T14:33:27;3.88;;;0.40;;
71963;SDS011;59834;52.124;5.422;2023-04-25T14:35:54;2.72;;;0.20;;
71963;SDS011;59834;52.124;5.422;2023-04-25T14:38:21;1.70;;;0.10;;
71963;SDS011;59834;52.124;5.422;2023-04-25T14:41:13;2.50;;;0.13;;
71963;SDS011;59834;52.124;5.422;2023-04-25T14:43:58;4.10;;;0.50;;
71963;SDS011;59834;52.124;5.422;2023-04-25T14:46:30;6.45;;;0.20;;
71963;SDS011;59834;52.124;5.422;2023-04-25T14:49:02;1.38;;;0.20;;
71963;SDS011;59834;52.124;5.422;2023-04-25T14:51:29;3.08;;;0.10;;
71963;SDS011;59834;52.124;5.422;2023-04-25T14:53:57;3.92;;;0.10;;
71963;SDS011;59834;52.124;5.422;2023-04-25T14:56:27;3.03;;;0.43;;
71963;SDS011;59834;52.124;5.422;2023-04-25T14:58:57;2.33;;;0.20;;
71963;SDS011;59834;52.124;5.422;2023-04-25T15:01:25;2.95;;;0.10;;